createdAt,value
2023-02-17T00:02:16.033Z,19.30
2023-02-17T00:06:21.734Z,15.00
2023-02-17T00:10:23.888Z,15.13
2023-02-17T00:14:26.067Z,15.43
2023-02-17T00:18:28.183Z,15.57
2023-02-17T00:22:30.290Z,17.08
2023-02-17T00:26:32.494Z,18.05
2023-02-17T00:30:34.862Z,16.80
2023-02-17T00:34:37.447Z,17.55
2023-02-17T00:38:39.888Z,17.33
2023-02-17T00:42:42.187Z,21.25
2023-02-17T00:46:45.591Z,20.00
2023-02-17T00:50:49.281Z,16.60
2023-02-17T00:54:51.493Z,19.30
2023-02-17T00:58:53.586Z,14.80
2023-02-17T01:02:55.757Z,15.02
2023-02-17T01:06:58.464Z,11.65
2023-02-17T01:11:00.980Z,9.55
2023-02-17T01:15:03.314Z,8.95
2023-02-17T01:19:11.843Z,9.93
2023-02-17T01:23:14.673Z,9.50
2023-02-17T01:27:16.810Z,9.48
2023-02-17T01:31:20.466Z,8.45
2023-02-17T01:35:22.708Z,9.70
2023-02-17T01:39:24.924Z,9.82
2023-02-17T01:43:27.482Z,9.32
2023-02-17T01:47:29.665Z,9.02
2023-02-17T01:51:36.088Z,9.20
2023-02-17T01:55:41.262Z,8.63
2023-02-17T01:59:44.784Z,8.13
2023-02-17T02:03:47.990Z,7.90
2023-02-17T02:07:50.852Z,8.80
2023-02-17T02:11:52.986Z,10.05
2023-02-17T02:16:18.151Z,9.52
2023-02-17T02:20:53.377Z,9.40
2023-02-17T02:25:31.537Z,8.48
2023-02-17T02:30:16.493Z,8.80
2023-02-17T02:34:41.333Z,9.45
2023-02-17T02:38:50.785Z,7.85
2023-02-17T02:42:56.341Z,6.63
2023-02-17T02:47:27.538Z,7.05
2023-02-17T02:51:34.763Z,9.05
2023-02-17T02:56:09.138Z,8.38
2023-02-17T03:00:55.374Z,8.70
2023-02-17T03:05:19.492Z,6.72
2023-02-17T03:09:24.670Z,6.13
2023-02-17T03:13:26.881Z,7.95
2023-02-17T03:17:33.546Z,7.85
2023-02-17T03:21:43.341Z,6.72
2023-02-17T03:25:45.572Z,8.70
2023-02-17T03:29:48.279Z,11.45
2023-02-17T03:33:53.335Z,12.48
2023-02-17T03:37:55.717Z,13.85
2023-02-17T03:41:58.049Z,13.57
2023-02-17T03:46:00.336Z,11.95
2023-02-17T03:50:02.488Z,7.88
2023-02-17T03:54:05.020Z,8.45
2023-02-17T03:58:07.221Z,6.65
2023-02-17T04:02:09.492Z,6.20
2023-02-17T04:06:12.038Z,6.93
2023-02-17T04:10:14.231Z,7.32
2023-02-17T04:14:16.335Z,6.03
2023-02-17T04:18:19.950Z,6.35
2023-02-17T04:22:22.217Z,8.00
2023-02-17T04:26:24.413Z,5.38
2023-02-17T04:30:26.591Z,4.97
2023-02-17T04:34:28.899Z,4.63
2023-02-17T04:38:33.445Z,5.32
2023-02-17T04:42:38.533Z,5.25
2023-02-17T04:46:40.620Z,4.53
2023-02-17T04:50:43.062Z,5.40
2023-02-17T04:54:45.244Z,4.88
2023-02-17T04:58:47.411Z,4.10
2023-02-17T05:02:49.526Z,3.90
2023-02-17T05:06:51.695Z,3.85
2023-02-17T05:10:53.848Z,3.47
2023-02-17T05:14:55.948Z,3.50
2023-02-17T05:18:58.118Z,4.82
2023-02-17T05:23:00.423Z,4.40
2023-02-17T05:27:02.587Z,3.53
2023-02-17T05:31:05.144Z,2.67
2023-02-17T05:35:07.870Z,3.20
2023-02-17T05:39:10.183Z,2.88
2023-02-17T05:43:12.572Z,2.58
2023-02-17T05:47:14.737Z,3.72
2023-02-17T05:51:17.357Z,3.20
2023-02-17T05:55:19.601Z,2.55
2023-02-17T05:59:22.054Z,2.58
2023-02-17T06:03:24.194Z,1.70
2023-02-17T06:07:26.490Z,2.00
2023-02-17T06:11:28.718Z,3.22
2023-02-17T06:15:30.863Z,1.85
2023-02-17T06:19:32.968Z,3.75
2023-02-17T06:23:35.160Z,4.28
2023-02-17T06:27:37.361Z,5.07
2023-02-17T06:31:39.635Z,3.10
2023-02-17T06:35:41.835Z,2.70
2023-02-17T06:39:43.988Z,3.30
2023-02-17T06:43:46.084Z,2.05
2023-02-17T06:47:48.328Z,2.42
2023-02-17T06:51:50.514Z,2.03
2023-02-17T06:55:52.680Z,2.55
2023-02-17T06:59:54.807Z,2.00
2023-02-17T07:03:57.224Z,2.63
2023-02-17T07:07:59.575Z,3.72
2023-02-17T07:12:02.320Z,2.33
2023-02-17T07:16:04.958Z,2.15
2023-02-17T07:20:09.348Z,2.40
2023-02-17T07:24:11.565Z,2.58
2023-02-17T07:28:14.072Z,2.35
2023-02-17T07:32:16.228Z,2.28
2023-02-17T07:36:18.666Z,3.20
2023-02-17T07:40:20.963Z,2.88
2023-02-17T07:44:23.067Z,3.10
2023-02-17T07:48:25.271Z,3.55
2023-02-17T07:52:27.434Z,2.90
2023-02-17T07:56:30.438Z,3.88
2023-02-17T08:00:32.644Z,4.05
2023-02-17T08:04:34.831Z,3.85
2023-02-17T08:08:55.693Z,4.18
2023-02-17T08:13:16.711Z,4.72
2023-02-17T08:17:18.887Z,5.90
2023-02-17T08:21:22.360Z,4.32
2023-02-17T08:25:24.666Z,5.00
2023-02-17T08:29:27.216Z,5.32
2023-02-17T08:33:29.667Z,4.65
2023-02-17T08:37:32.205Z,6.22
2023-02-17T08:41:37.523Z,4.82
2023-02-17T08:45:39.759Z,7.82
2023-02-17T08:49:41.901Z,7.65
2023-02-17T08:53:45.640Z,4.28
2023-02-17T08:57:47.757Z,6.55
2023-02-17T09:01:50.957Z,5.70
2023-02-17T09:05:57.324Z,4.80
2023-02-17T09:09:59.530Z,4.10
2023-02-17T09:14:02.609Z,4.50
2023-02-17T09:18:04.832Z,2.83
2023-02-17T09:22:07.096Z,2.40
2023-02-17T09:26:11.686Z,3.53
2023-02-17T09:30:14.149Z,2.97
2023-02-17T09:34:16.354Z,4.13
2023-02-17T09:38:18.648Z,4.00
2023-02-17T09:42:24.098Z,3.38
2023-02-17T09:46:31.652Z,3.42
2023-02-17T09:50:43.778Z,3.10
2023-02-17T09:54:55.253Z,3.10
2023-02-17T09:59:02.038Z,3.10
2023-02-17T10:03:19.288Z,2.97
2023-02-17T10:07:28.084Z,4.15
2023-02-17T10:11:34.040Z,3.20
2023-02-17T10:16:05.087Z,6.53
2023-02-17T10:20:13.893Z,3.17
2023-02-17T10:24:16.216Z,3.53
2023-02-17T10:28:30.282Z,3.30
2023-02-17T10:32:43.432Z,3.20
2023-02-17T10:36:53.215Z,5.65
2023-02-17T10:40:56.470Z,3.42
2023-02-17T10:45:13.193Z,3.28
2023-02-17T10:49:26.903Z,8.97
2023-02-17T10:53:36.206Z,4.50
2023-02-17T10:57:40.941Z,2.75
2023-02-17T11:01:44.045Z,2.50
2023-02-17T11:05:57.744Z,2.42
2023-02-17T11:10:03.224Z,3.90
2023-02-17T11:14:08.404Z,2.08
2023-02-17T11:18:20.049Z,1.83
2023-02-17T11:22:46.948Z,1.92
2023-02-17T11:26:57.369Z,1.63
2023-02-17T11:31:02.632Z,2.17
2023-02-17T11:35:06.491Z,3.30
2023-02-17T11:39:22.375Z,3.47
2023-02-17T11:43:25.051Z,1.60
2023-02-17T11:47:45.449Z,1.73
2023-02-17T11:52:07.911Z,1.50
2023-02-17T11:56:33.050Z,1.50
2023-02-17T12:00:51.587Z,1.95
2023-02-17T12:05:41.707Z,2.30
2023-02-17T12:09:57.100Z,1.90
2023-02-17T12:14:09.297Z,1.70
2023-02-17T12:18:49.094Z,1.45
2023-02-17T12:23:18.477Z,1.50
2023-02-17T12:27:30.262Z,2.65
2023-02-17T12:31:53.882Z,2.75
2023-02-17T12:36:01.010Z,1.23
2023-02-17T12:40:07.107Z,0.98
2023-02-17T12:44:22.378Z,1.10
2023-02-17T12:48:34.739Z,1.20
2023-02-17T12:52:42.087Z,11.02
2023-02-17T12:56:54.968Z,1.30
2023-02-17T13:01:07.269Z,1.35
2023-02-17T13:05:26.532Z,2.03
2023-02-17T13:09:36.596Z,1.52
2023-02-17T13:13:38.936Z,2.83
2023-02-17T13:17:54.186Z,3.35
2023-02-17T13:21:59.732Z,1.50
2023-02-17T13:26:22.608Z,0.63
2023-02-17T13:30:24.701Z,0.98
2023-02-17T13:34:34.241Z,0.85
2023-02-17T13:38:36.277Z,0.50
2023-02-17T13:42:41.147Z,0.85
2023-02-17T13:46:44.129Z,0.70
2023-02-17T13:50:48.724Z,0.85
2023-02-17T13:54:58.743Z,1.00
2023-02-17T13:59:17.507Z,1.42
2023-02-17T14:03:33.128Z,1.20
2023-02-17T14:07:36.225Z,0.68
2023-02-17T14:11:38.373Z,0.73
2023-02-17T14:15:52.683Z,1.15
2023-02-17T14:19:54.948Z,1.02
2023-02-17T14:23:58.570Z,0.65
2023-02-17T14:28:00.705Z,0.73
2023-02-17T14:32:02.838Z,0.65
2023-02-17T14:36:07.779Z,0.50
2023-02-17T14:40:23.288Z,0.57
2023-02-17T14:44:25.282Z,0.75
2023-02-17T14:48:28.171Z,0.88
2023-02-17T14:52:30.365Z,1.08
2023-02-17T14:56:40.270Z,0.70
2023-02-17T15:00:42.262Z,1.08
2023-02-17T15:04:44.415Z,1.17
2023-02-17T15:08:49.168Z,1.20
2023-02-17T15:12:51.646Z,1.73
2023-02-17T15:16:53.703Z,0.60
2023-02-17T15:20:56.745Z,1.92
2023-02-17T15:24:58.770Z,1.80
2023-02-17T15:29:00.861Z,2.05
2023-02-17T15:33:03.373Z,2.10
2023-02-17T15:37:05.371Z,2.50
2023-02-17T15:41:17.671Z,0.98
2023-02-17T15:45:20.440Z,0.95
2023-02-17T15:49:22.852Z,0.75
2023-02-17T15:53:24.915Z,0.93
2023-02-17T15:57:27.005Z,1.80
2023-02-17T16:01:32.570Z,0.60
2023-02-17T16:05:34.608Z,1.55
2023-02-17T16:09:36.619Z,1.30
2023-02-17T16:13:40.054Z,1.02
2023-02-17T16:17:42.380Z,4.53
2023-02-17T16:21:44.408Z,1.05
2023-02-17T16:25:47.674Z,1.40
2023-02-17T16:29:49.765Z,1.00
2023-02-17T16:33:51.864Z,1.38
2023-02-17T16:38:01.331Z,1.77
2023-02-17T16:42:03.650Z,3.55
2023-02-17T16:46:06.490Z,1.30
2023-02-17T16:50:33.303Z,1.77
2023-02-17T16:54:35.941Z,3.58
2023-02-17T16:58:38.708Z,1.20
2023-02-17T17:02:41.432Z,2.20
2023-02-17T17:06:52.223Z,2.90
2023-02-17T17:10:54.223Z,1.95
2023-02-17T17:14:56.243Z,2.20
2023-02-17T17:18:59.289Z,1.90
2023-02-17T17:23:04.053Z,4.60
2023-02-17T17:27:06.431Z,1.25
2023-02-17T17:31:11.186Z,1.95
2023-02-17T17:35:13.590Z,1.30
2023-02-17T17:39:18.688Z,1.33
2023-02-17T17:43:22.321Z,2.08
2023-02-17T17:47:29.706Z,1.98
2023-02-17T17:51:33.793Z,1.60
2023-02-17T17:55:36.687Z,1.95
2023-02-17T17:59:38.722Z,7.28
2023-02-17T18:03:41.579Z,5.32
2023-02-17T18:07:45.987Z,2.00
2023-02-17T18:11:49.135Z,2.38
2023-02-17T18:15:51.776Z,3.50
2023-02-17T18:19:55.032Z,3.10
2023-02-17T18:23:57.109Z,2.90
2023-02-17T18:27:59.341Z,6.20
2023-02-17T18:32:01.465Z,7.20
2023-02-17T18:36:18.889Z,5.18
2023-02-17T18:40:21.862Z,2.83
2023-02-17T18:44:23.908Z,2.20
2023-02-17T18:48:26.325Z,2.72
2023-02-17T18:52:28.414Z,2.03
2023-02-17T18:56:33.398Z,1.98
2023-02-17T19:00:35.603Z,1.85
2023-02-17T19:04:38.042Z,2.55
2023-02-17T19:08:40.740Z,3.60
2023-02-17T19:12:42.710Z,2.60
2023-02-17T19:16:44.697Z,2.40
2023-02-17T19:20:46.689Z,3.83
2023-02-17T19:24:53.763Z,3.22
2023-02-17T19:28:55.756Z,3.10
2023-02-17T19:32:57.759Z,3.05
2023-02-17T19:36:59.816Z,2.30
2023-02-17T19:41:03.963Z,2.28
2023-02-17T19:45:06.957Z,1.60
2023-02-17T19:49:09.024Z,2.17
2023-02-17T19:53:11.470Z,2.50
2023-02-17T19:57:17.228Z,3.05
2023-02-17T20:01:22.838Z,2.33
2023-02-17T20:05:24.885Z,2.75
2023-02-17T20:09:27.016Z,2.25
2023-02-17T20:13:34.728Z,2.10
2023-02-17T20:17:46.203Z,1.67
2023-02-17T20:21:48.241Z,1.50
2023-02-17T20:25:50.241Z,1.70
2023-02-17T20:29:52.241Z,1.85
2023-02-17T20:33:54.351Z,1.95
2023-02-17T20:37:56.655Z,2.20
2023-02-17T20:42:00.365Z,2.22
2023-02-17T20:46:02.811Z,3.30
2023-02-17T20:50:09.093Z,3.33
2023-02-17T20:54:11.086Z,2.40
2023-02-17T20:58:13.126Z,2.75
2023-02-17T21:02:15.156Z,2.95
2023-02-17T21:06:25.822Z,2.90
2023-02-17T21:10:30.023Z,2.85
2023-02-17T21:14:32.026Z,3.65
2023-02-17T21:18:35.654Z,3.17
2023-02-17T21:22:37.646Z,3.08
2023-02-17T21:26:39.753Z,3.65
2023-02-17T21:30:46.576Z,3.10
2023-02-17T21:34:48.576Z,3.20
2023-02-17T21:38:50.713Z,3.33
2023-02-17T21:43:11.203Z,3.10
2023-02-17T21:47:13.356Z,3.50
2023-02-17T21:51:15.738Z,8.40
2023-02-17T21:55:17.787Z,23.05
2023-02-17T21:59:19.820Z,4.43
2023-02-17T22:03:21.895Z,5.18
2023-02-17T22:07:23.904Z,4.05
2023-02-17T22:11:29.046Z,6.40
2023-02-17T22:15:31.046Z,4.10
2023-02-17T22:19:33.051Z,6.30
2023-02-17T22:23:35.475Z,4.70
2023-02-17T22:27:37.492Z,4.28
2023-02-17T22:31:39.707Z,3.70
2023-02-17T22:35:41.789Z,4.75
2023-02-17T22:39:43.800Z,2.40
2023-02-17T22:43:47.293Z,2.08
2023-02-17T22:47:52.226Z,2.72
2023-02-17T22:51:54.213Z,1.67
2023-02-17T22:55:57.926Z,1.10
2023-02-17T23:00:00.000Z,3.15
2023-02-17T23:04:02.470Z,1.58
2023-02-17T23:08:04.856Z,1.10
2023-02-17T23:12:06.912Z,1.50
2023-02-17T23:16:09.584Z,1.10
2023-02-17T23:20:11.893Z,2.55
2023-02-17T23:24:15.193Z,1.02
2023-02-17T23:28:19.056Z,2.05
2023-02-17T23:32:21.060Z,1.63
2023-02-17T23:36:23.058Z,2.85
2023-02-17T23:40:25.054Z,1.00
2023-02-17T23:44:27.106Z,3.55
2023-02-17T23:48:29.114Z,3.13
2023-02-17T23:52:31.331Z,1.50
2023-02-17T23:56:35.016Z,1.30
